createdAt,value
2022-10-18T00:01:11.788Z,22.00
2022-10-18T00:06:13.417Z,21.15
2022-10-18T00:11:14.997Z,22.65
2022-10-18T00:16:18.144Z,18.60
2022-10-18T00:21:21.446Z,23.08
2022-10-18T00:26:25.673Z,22.10
2022-10-18T00:31:29.720Z,24.30
2022-10-18T00:36:34.207Z,23.38
2022-10-18T00:41:37.958Z,23.48
2022-10-18T00:46:41.941Z,22.88
2022-10-18T00:51:50.409Z,22.70
2022-10-18T00:56:52.088Z,25.40
2022-10-18T01:01:53.770Z,23.48
2022-10-18T01:07:25.643Z,23.48
2022-10-18T01:12:56.894Z,23.77
2022-10-18T01:18:14.852Z,24.98
2022-10-18T01:23:46.013Z,24.52
2022-10-18T01:28:57.019Z,23.42
2022-10-18T01:39:12.390Z,23.30
2022-10-18T01:44:26.772Z,23.90
2022-10-18T01:49:28.375Z,25.48
2022-10-18T01:54:49.052Z,23.48
2022-10-18T01:59:59.870Z,26.20
2022-10-18T02:05:25.138Z,24.95
2022-10-18T02:10:41.775Z,24.52
2022-10-18T02:15:46.445Z,25.85
2022-10-18T02:20:48.877Z,25.25
2022-10-18T02:25:53.904Z,27.90
2022-10-18T02:31:21.873Z,26.70
2022-10-18T02:36:46.918Z,27.95
2022-10-18T02:41:58.299Z,26.13
2022-10-18T02:47:02.948Z,27.05
2022-10-18T02:52:04.831Z,24.85
2022-10-18T02:57:06.786Z,24.30
2022-10-18T03:02:08.466Z,28.70
2022-10-18T03:07:14.063Z,30.65
2022-10-18T03:12:16.257Z,27.27
2022-10-18T03:17:21.330Z,26.10
2022-10-18T03:27:30.604Z,27.33
2022-10-18T03:32:35.325Z,24.15
2022-10-18T03:37:40.450Z,23.80
2022-10-18T03:42:42.389Z,24.90
2022-10-18T03:47:46.824Z,23.08
2022-10-18T03:52:51.286Z,25.83
2022-10-18T03:57:53.160Z,26.20
2022-10-18T04:02:57.165Z,25.38
2022-10-18T04:07:58.982Z,23.75
2022-10-18T04:13:00.968Z,22.55
2022-10-18T04:18:05.783Z,23.70
2022-10-18T04:23:07.669Z,23.58
2022-10-18T04:28:09.387Z,23.63
2022-10-18T04:33:13.894Z,20.30
2022-10-18T04:38:15.601Z,24.02
2022-10-18T04:43:17.360Z,22.55
2022-10-18T04:48:18.987Z,24.30
2022-10-18T04:53:20.682Z,22.10
2022-10-18T04:58:22.311Z,23.77
2022-10-18T05:03:23.896Z,22.67
2022-10-18T05:08:25.485Z,22.00
2022-10-18T05:13:27.315Z,20.95
2022-10-18T05:18:28.922Z,19.65
2022-10-18T05:23:30.519Z,18.88
2022-10-18T05:28:41.339Z,21.33
2022-10-18T05:33:43.464Z,20.25
2022-10-18T05:38:45.661Z,19.45
2022-10-18T05:43:47.271Z,17.98
2022-10-18T05:48:51.988Z,19.67
2022-10-18T05:53:54.754Z,20.50
2022-10-18T05:58:56.368Z,20.05
2022-10-18T06:03:57.956Z,20.80
2022-10-18T06:08:59.889Z,19.63
2022-10-18T06:14:01.931Z,20.63
2022-10-18T06:19:03.858Z,21.27
2022-10-18T06:24:05.818Z,20.95
2022-10-18T06:29:07.443Z,20.17
2022-10-18T06:34:09.070Z,20.08
2022-10-18T06:39:10.977Z,18.80
2022-10-18T06:44:15.562Z,19.15
2022-10-18T06:49:19.162Z,20.35
2022-10-18T06:54:21.163Z,18.58
2022-10-18T06:59:24.325Z,14.93
2022-10-18T07:04:29.700Z,18.70
2022-10-18T07:09:31.312Z,17.55
2022-10-18T07:14:33.016Z,16.00
2022-10-18T07:19:34.607Z,17.95
2022-10-18T07:24:36.252Z,17.20
2022-10-18T07:29:38.822Z,19.02
2022-10-18T07:34:40.425Z,17.27
2022-10-18T07:39:42.011Z,17.52
2022-10-18T07:44:43.687Z,17.25
2022-10-18T07:49:45.270Z,16.92
2022-10-18T07:54:46.882Z,17.55
2022-10-18T07:59:52.212Z,17.13
2022-10-18T08:04:53.799Z,15.88
2022-10-18T08:09:55.416Z,16.98
2022-10-18T08:14:57.061Z,17.67
2022-10-18T08:20:12.130Z,18.33
2022-10-18T08:25:20.286Z,16.95
2022-10-18T08:30:23.364Z,15.90
2022-10-18T08:35:25.067Z,16.02
2022-10-18T08:40:27.892Z,19.20
2022-10-18T08:45:41.580Z,16.45
2022-10-18T08:50:45.352Z,17.05
2022-10-18T08:55:52.561Z,16.83
2022-10-18T09:01:24.704Z,16.85
2022-10-18T09:06:34.649Z,17.00
2022-10-18T09:12:01.053Z,17.73
2022-10-18T09:17:25.470Z,16.38
2022-10-18T09:22:53.118Z,17.08
2022-10-18T09:28:16.408Z,17.77
2022-10-18T09:33:53.358Z,14.23
2022-10-18T09:39:02.794Z,18.00
2022-10-18T09:44:26.027Z,17.75
2022-10-18T09:49:48.384Z,15.05
2022-10-18T09:54:55.358Z,17.23
2022-10-18T10:00:00.099Z,17.48
2022-10-18T10:05:01.761Z,16.65
2022-10-18T10:10:12.290Z,15.27
2022-10-18T10:15:21.177Z,16.10
2022-10-18T10:20:32.960Z,16.05
2022-10-18T10:25:39.176Z,14.57
2022-10-18T10:30:41.899Z,14.63
2022-10-18T10:35:58.883Z,16.55
2022-10-18T10:41:07.807Z,15.50
2022-10-18T10:46:18.965Z,17.10
2022-10-18T10:51:32.838Z,17.65
2022-10-18T10:56:58.438Z,18.75
2022-10-18T11:02:22.498Z,17.17
2022-10-18T11:07:33.910Z,11.90
2022-10-18T11:12:42.059Z,9.30
2022-10-18T11:17:58.978Z,7.07
2022-10-18T11:23:07.428Z,6.40
2022-10-18T11:28:18.100Z,6.13
2022-10-18T11:33:56.281Z,4.93
2022-10-18T11:38:59.232Z,3.55
2022-10-18T11:44:08.452Z,5.25
2022-10-18T11:49:18.964Z,10.40
2022-10-18T11:54:35.804Z,3.78
2022-10-18T11:59:42.001Z,4.88
2022-10-18T12:05:22.700Z,4.15
2022-10-18T12:10:44.347Z,4.53
2022-10-18T12:15:53.681Z,4.03
2022-10-18T12:20:57.050Z,2.83
2022-10-18T12:26:08.372Z,2.47
2022-10-18T12:31:45.030Z,2.97
2022-10-18T12:36:46.582Z,3.22
2022-10-18T12:41:50.966Z,3.00
2022-10-18T12:47:02.166Z,3.08
2022-10-18T12:52:26.065Z,2.25
2022-10-18T12:57:53.283Z,2.00
2022-10-18T13:03:20.956Z,1.75
2022-10-18T13:08:38.269Z,1.30
2022-10-18T13:14:15.292Z,1.23
2022-10-18T13:24:30.530Z,1.10
2022-10-18T13:29:47.568Z,0.93
2022-10-18T13:34:49.703Z,1.33
2022-10-18T13:40:13.252Z,1.02
2022-10-18T13:45:40.720Z,0.88
2022-10-18T13:50:43.271Z,0.93
2022-10-18T13:55:59.039Z,1.23
2022-10-18T14:01:29.849Z,1.33
2022-10-18T14:06:51.601Z,1.25
2022-10-18T14:12:14.318Z,2.22
2022-10-18T14:17:28.210Z,2.90
2022-10-18T14:22:45.782Z,2.65
2022-10-18T14:27:50.924Z,2.05
2022-10-18T14:32:55.486Z,2.30
2022-10-18T14:37:57.555Z,2.72
2022-10-18T14:43:13.615Z,2.05
2022-10-18T14:48:22.099Z,2.50
2022-10-18T14:53:25.174Z,1.92
2022-10-18T14:58:27.576Z,1.83
2022-10-18T15:03:32.990Z,1.70
2022-10-18T15:08:44.379Z,1.95
2022-10-18T15:13:53.923Z,1.70
2022-10-18T15:19:06.711Z,1.65
2022-10-18T15:24:39.780Z,1.65
2022-10-18T15:29:43.771Z,1.60
2022-10-18T15:34:45.967Z,1.63
2022-10-18T15:39:49.009Z,2.22
2022-10-18T15:44:51.410Z,1.98
2022-10-18T15:49:56.433Z,2.70
2022-10-18T15:54:59.131Z,2.33
2022-10-18T16:00:29.837Z,2.10
2022-10-18T16:05:35.390Z,2.08
2022-10-18T16:10:39.632Z,4.38
2022-10-18T16:15:51.756Z,3.25
2022-10-18T16:25:57.513Z,2.40
2022-10-18T16:31:04.609Z,2.60
2022-10-18T16:36:08.095Z,3.15
2022-10-18T16:41:14.820Z,1.88
2022-10-18T16:46:32.334Z,1.58
2022-10-18T16:51:34.768Z,1.80
2022-10-18T16:56:46.790Z,2.67
2022-10-18T17:01:52.253Z,2.00
2022-10-18T17:06:54.447Z,1.48
2022-10-18T17:12:22.415Z,1.23
2022-10-18T17:17:39.035Z,20.73
2022-10-18T17:22:40.668Z,18.17
2022-10-18T17:27:42.585Z,8.38
2022-10-18T17:32:47.014Z,8.10
2022-10-18T17:37:57.647Z,4.45
2022-10-18T17:43:03.318Z,2.78
2022-10-18T17:48:04.979Z,6.68
2022-10-18T17:53:29.160Z,5.18
2022-10-18T17:58:46.779Z,6.25
2022-10-18T18:03:54.938Z,6.35
2022-10-18T18:09:18.038Z,5.40
2022-10-18T18:14:24.871Z,7.13
2022-10-18T18:19:26.688Z,5.15
2022-10-18T18:24:47.696Z,3.92
2022-10-18T18:29:56.458Z,3.35
2022-10-18T18:35:09.300Z,4.65
2022-10-18T18:40:34.254Z,3.80
2022-10-18T18:45:42.975Z,2.25
2022-10-18T18:50:52.278Z,6.35
2022-10-18T18:55:56.092Z,6.80
2022-10-18T19:01:09.886Z,3.67
2022-10-18T19:06:39.302Z,6.40
2022-10-18T19:11:40.967Z,6.30
2022-10-18T19:16:59.185Z,6.90
2022-10-18T19:22:07.636Z,6.50
2022-10-18T19:27:44.114Z,7.80
2022-10-18T19:33:02.802Z,5.28
2022-10-18T19:38:14.135Z,4.72
2022-10-18T19:43:38.915Z,4.63
2022-10-18T19:53:52.670Z,6.00
2022-10-18T19:58:55.411Z,6.15
2022-10-18T20:03:57.135Z,5.60
2022-10-18T20:09:16.077Z,5.03
2022-10-18T20:14:22.734Z,5.38
2022-10-18T20:19:31.836Z,5.20
2022-10-18T20:24:41.810Z,7.28
2022-10-18T20:29:50.610Z,4.30
2022-10-18T20:34:57.466Z,7.63
2022-10-18T20:46:05.488Z,5.30
2022-10-18T20:51:12.744Z,8.63
2022-10-18T20:56:29.359Z,8.18
2022-10-18T21:12:29.077Z,6.20
2022-10-18T21:17:33.429Z,8.35
2022-10-18T21:22:36.051Z,6.40
2022-10-18T21:27:37.963Z,6.40
2022-10-18T21:32:39.657Z,4.75
2022-10-18T21:37:41.264Z,11.32
2022-10-18T21:42:42.847Z,8.77
2022-10-18T21:47:44.453Z,8.93
2022-10-18T21:52:46.053Z,9.13
2022-10-18T21:57:47.632Z,8.77
2022-10-18T22:02:49.237Z,8.30
2022-10-18T22:07:50.904Z,8.98
2022-10-18T22:12:52.527Z,9.82
2022-10-18T22:17:54.148Z,8.32
2022-10-18T22:22:55.943Z,8.13
2022-10-18T22:27:57.522Z,6.63
2022-10-18T22:32:59.111Z,9.45
2022-10-18T22:38:00.743Z,9.20
2022-10-18T22:43:02.338Z,10.73
2022-10-18T22:48:04.145Z,8.90
2022-10-18T22:53:05.769Z,12.82
2022-10-18T22:58:07.408Z,10.95
2022-10-18T23:03:09.627Z,15.57
2022-10-18T23:08:13.262Z,14.30
2022-10-18T23:13:15.486Z,15.70
2022-10-18T23:18:17.764Z,12.88
2022-10-18T23:23:19.392Z,14.30
2022-10-18T23:28:20.961Z,15.85
2022-10-18T23:33:22.541Z,16.02
2022-10-18T23:38:24.119Z,11.43
2022-10-18T23:43:26.069Z,17.35
2022-10-18T23:48:31.430Z,15.52
2022-10-18T23:53:33.876Z,13.07
2022-10-18T23:58:36.835Z,12.15
